createdAt,value
2023-04-17T00:00:06.675Z,77.74
2023-04-17T00:01:14.348Z,77.72
2023-04-17T00:03:55.197Z,77.92
2023-04-17T00:05:00.905Z,77.89
2023-04-17T00:06:05.646Z,77.98
2023-04-17T00:07:09.043Z,77.92
2023-04-17T00:08:16.000Z,78.01
2023-04-17T00:09:21.280Z,78.03
2023-04-17T00:10:29.579Z,78.08
2023-04-17T00:11:36.837Z,78.08
2023-04-17T00:12:42.368Z,78.24
2023-04-17T00:13:50.854Z,78.24
2023-04-17T00:14:56.060Z,78.33
2023-04-17T00:16:02.022Z,78.39
2023-04-17T00:17:09.448Z,78.45
2023-04-17T00:18:16.720Z,78.49
2023-04-17T00:19:26.227Z,78.54
2023-04-17T00:20:35.649Z,78.55
2023-04-17T00:21:43.058Z,78.51
2023-04-17T00:22:48.055Z,78.47
2023-04-17T00:23:59.170Z,78.42
2023-04-17T00:25:04.972Z,78.35
2023-04-17T00:26:12.452Z,78.35
2023-04-17T00:27:22.438Z,78.38
2023-04-17T00:28:29.555Z,78.32
2023-04-17T00:29:39.675Z,78.32
2023-04-17T00:30:42.455Z,78.32
2023-04-17T00:31:48.749Z,78.28
2023-04-17T00:32:52.376Z,78.25
2023-04-17T00:33:58.169Z,78.23
2023-04-17T00:35:00.815Z,78.23
2023-04-17T00:36:06.903Z,78.18
2023-04-17T00:37:12.497Z,78.18
2023-04-17T00:38:31.414Z,78.20
2023-04-17T00:39:36.498Z,78.19
2023-04-17T00:40:39.790Z,78.15
2023-04-17T00:41:44.628Z,78.10
2023-04-17T00:42:48.686Z,78.14
2023-04-17T00:43:52.539Z,78.21
2023-04-17T00:45:01.744Z,78.24
2023-04-17T00:46:12.649Z,78.20
2023-04-17T00:47:17.513Z,78.10
2023-04-17T00:48:24.356Z,78.10
2023-04-17T00:49:33.309Z,78.12
2023-04-17T00:50:39.376Z,78.15
2023-04-17T00:51:45.097Z,78.14
2023-04-17T00:52:47.868Z,78.08
2023-04-17T00:53:52.985Z,78.08
2023-04-17T00:54:59.617Z,78.04
2023-04-17T00:56:09.880Z,78.06
2023-04-17T00:57:26.702Z,78.05
2023-04-17T00:58:34.474Z,78.05
2023-04-17T00:59:48.133Z,77.97
2023-04-17T01:00:56.835Z,77.93
2023-04-17T01:02:03.497Z,77.93
2023-04-17T01:03:08.481Z,77.93
2023-04-17T01:04:13.629Z,77.92
2023-04-17T01:05:18.157Z,77.88
2023-04-17T01:06:32.050Z,77.91
2023-04-17T01:07:36.291Z,77.93
2023-04-17T01:08:45.098Z,77.90
2023-04-17T01:09:51.797Z,77.92
2023-04-17T01:10:56.168Z,77.98
2023-04-17T01:13:29.226Z,78.00
2023-04-17T01:14:31.528Z,78.06
2023-04-17T01:15:35.080Z,78.05
2023-04-17T01:17:28.185Z,77.95
2023-04-17T01:18:32.116Z,78.02
2023-04-17T01:19:34.286Z,78.03
2023-04-17T01:20:36.587Z,78.01
2023-04-17T01:21:38.975Z,78.06
2023-04-17T01:22:41.247Z,78.05
2023-04-17T01:23:50.550Z,77.99
2023-04-17T01:24:53.151Z,77.99
2023-04-17T01:25:55.447Z,78.02
2023-04-17T01:26:59.679Z,78.12
2023-04-17T01:28:04.536Z,78.19
2023-04-17T01:29:06.947Z,78.19
2023-04-17T01:30:13.307Z,78.23
2023-04-17T01:31:20.701Z,78.28
2023-04-17T01:32:22.972Z,78.25
2023-04-17T01:33:25.242Z,78.25
2023-04-17T01:34:27.527Z,78.23
2023-04-17T01:35:29.984Z,78.28
2023-04-17T01:36:32.824Z,78.24
2023-04-17T01:37:35.347Z,78.28
2023-04-17T01:38:38.176Z,78.32
2023-04-17T01:39:41.577Z,78.37
2023-04-17T01:40:45.158Z,78.32
2023-04-17T01:41:47.588Z,78.35
2023-04-17T01:42:49.734Z,78.44
2023-04-17T01:43:51.991Z,78.44
2023-04-17T01:44:54.808Z,78.44
2023-04-17T01:45:56.887Z,78.49
2023-04-17T01:46:59.674Z,78.60
2023-04-17T01:48:01.756Z,78.58
2023-04-17T01:49:04.458Z,78.55
2023-04-17T01:50:08.057Z,78.53
2023-04-17T01:51:10.392Z,78.56
2023-04-17T01:52:13.196Z,78.54
2023-04-17T01:53:15.421Z,78.55
2023-04-17T01:54:17.696Z,78.55
2023-04-17T01:55:20.038Z,78.59
2023-04-17T01:56:22.220Z,78.69
2023-04-17T01:57:24.494Z,78.71
2023-04-17T01:58:26.896Z,78.71
2023-04-17T01:59:29.089Z,78.74
2023-04-17T02:00:31.265Z,78.60
2023-04-17T02:01:33.751Z,78.54
2023-04-17T02:02:36.173Z,78.56
2023-04-17T02:03:38.987Z,78.49
2023-04-17T02:04:41.432Z,78.52
2023-04-17T02:05:48.323Z,78.57
2023-04-17T02:06:51.068Z,78.60
2023-04-17T02:07:53.376Z,78.62
2023-04-17T02:08:55.549Z,78.54
2023-04-17T02:09:58.054Z,78.54
2023-04-17T02:11:00.338Z,78.53
2023-04-17T02:12:03.048Z,78.46
2023-04-17T02:13:05.668Z,78.51
2023-04-17T02:14:07.845Z,78.52
2023-04-17T02:15:10.632Z,78.50
2023-04-17T02:16:14.427Z,78.50
2023-04-17T02:17:17.161Z,78.55
2023-04-17T02:18:19.708Z,78.59
2023-04-17T02:19:21.965Z,78.56
2023-04-17T02:20:24.571Z,78.48
2023-04-17T02:21:26.754Z,78.52
2023-04-17T02:22:28.927Z,78.52
2023-04-17T02:23:31.163Z,78.53
2023-04-17T02:24:33.412Z,78.43
2023-04-17T02:25:35.775Z,78.48
2023-04-17T02:26:38.916Z,78.43
2023-04-17T02:27:41.090Z,78.38
2023-04-17T02:28:44.200Z,78.37
2023-04-17T02:29:47.766Z,78.32
2023-04-17T02:30:50.186Z,78.33
2023-04-17T02:31:52.414Z,78.34
2023-04-17T02:32:55.210Z,78.35
2023-04-17T02:33:58.001Z,78.36
2023-04-17T02:35:00.293Z,78.30
2023-04-17T02:36:03.580Z,78.29
2023-04-17T02:37:07.690Z,78.19
2023-04-17T02:38:12.275Z,78.21
2023-04-17T02:39:17.491Z,78.15
2023-04-17T02:40:20.108Z,78.15
2023-04-17T02:41:24.262Z,78.17
2023-04-17T02:42:27.633Z,78.18
2023-04-17T02:43:29.964Z,78.12
2023-04-17T02:44:33.294Z,78.14
2023-04-17T02:45:35.903Z,78.19
2023-04-17T02:46:38.199Z,78.23
2023-04-17T02:47:40.353Z,78.21
2023-04-17T02:48:43.117Z,78.15
2023-04-17T02:49:45.489Z,78.12
2023-04-17T02:50:47.843Z,78.08
2023-04-17T02:51:51.962Z,78.10
2023-04-17T02:52:54.106Z,78.14
2023-04-17T02:53:56.716Z,78.15
2023-04-17T02:54:59.003Z,78.17
2023-04-17T02:56:02.329Z,78.19
2023-04-17T02:57:05.147Z,78.24
2023-04-17T02:58:07.416Z,78.22
2023-04-17T02:59:09.769Z,78.23
2023-04-17T03:00:13.376Z,78.27
2023-04-17T03:01:15.630Z,78.29
2023-04-17T03:02:19.715Z,78.24
2023-04-17T03:03:22.094Z,78.20
2023-04-17T03:04:24.948Z,78.16
2023-04-17T03:05:27.124Z,78.16
2023-04-17T03:06:29.676Z,78.12
2023-04-17T03:07:32.820Z,78.12
2023-04-17T03:08:36.465Z,78.15
2023-04-17T03:09:39.106Z,78.18
2023-04-17T03:10:41.291Z,78.24
2023-04-17T03:11:43.660Z,78.21
2023-04-17T03:12:46.171Z,78.21
2023-04-17T03:13:49.193Z,78.19
2023-04-17T03:14:51.501Z,78.18
2023-04-17T03:15:54.311Z,78.14
2023-04-17T03:16:57.419Z,78.11
2023-04-17T03:18:00.123Z,78.06
2023-04-17T03:19:02.227Z,78.11
2023-04-17T03:20:07.102Z,78.09
2023-04-17T03:21:09.510Z,78.11
2023-04-17T03:22:13.386Z,78.10
2023-04-17T03:23:16.131Z,78.06
2023-04-17T03:24:18.403Z,78.00
2023-04-17T03:25:20.604Z,77.93
2023-04-17T03:26:25.322Z,77.88
2023-04-17T03:27:27.590Z,77.81
2023-04-17T03:28:30.204Z,77.75
2023-04-17T03:29:32.361Z,77.65
2023-04-17T03:30:34.773Z,77.55
2023-04-17T03:31:38.907Z,77.51
2023-04-17T03:32:41.222Z,77.50
2023-04-17T03:33:43.332Z,77.57
2023-04-17T03:34:45.693Z,77.64
2023-04-17T03:35:47.870Z,77.66
2023-04-17T03:36:50.678Z,77.64
2023-04-17T03:37:53.198Z,77.52
2023-04-17T03:38:55.556Z,77.50
2023-04-17T03:39:57.724Z,77.46
2023-04-17T03:41:01.280Z,77.42
2023-04-17T03:42:04.074Z,77.37
2023-04-17T03:43:06.270Z,77.33
2023-04-17T03:44:08.894Z,77.18
2023-04-17T03:45:11.415Z,77.10
2023-04-17T03:46:14.017Z,77.11
2023-04-17T03:47:17.690Z,77.02
2023-04-17T03:48:19.934Z,77.01
2023-04-17T03:49:22.512Z,76.90
2023-04-17T03:50:27.063Z,76.96
2023-04-17T03:51:31.680Z,76.83
2023-04-17T03:52:38.862Z,76.75
2023-04-17T03:53:41.073Z,76.66
2023-04-17T03:54:44.954Z,76.59
2023-04-17T03:55:47.962Z,76.49
2023-04-17T03:56:52.178Z,76.39
2023-04-17T03:57:54.460Z,76.34
2023-04-17T03:58:56.726Z,76.20
2023-04-17T03:59:58.909Z,76.10
2023-04-17T04:01:01.783Z,76.13
2023-04-17T04:02:05.902Z,76.10
2023-04-17T04:03:11.080Z,75.90
2023-04-17T04:04:15.413Z,75.66
2023-04-17T04:05:17.848Z,75.35
2023-04-17T04:06:21.325Z,75.35
2023-04-17T04:07:23.937Z,75.21
2023-04-17T04:08:26.789Z,75.07
2023-04-17T04:09:29.527Z,74.87
2023-04-17T04:10:31.982Z,74.78
2023-04-17T04:11:34.371Z,74.66
2023-04-17T04:12:37.875Z,74.64
2023-04-17T04:13:40.180Z,74.31
2023-04-17T04:14:42.643Z,74.14
2023-04-17T04:15:45.230Z,74.17
2023-04-17T04:16:48.440Z,73.91
2023-04-17T04:17:50.764Z,73.54
2023-04-17T04:18:53.403Z,73.41
2023-04-17T04:19:55.778Z,73.04
2023-04-17T04:20:58.140Z,72.62
2023-04-17T04:22:02.247Z,72.36
2023-04-17T04:23:06.377Z,72.13
2023-04-17T04:24:08.956Z,72.14
2023-04-17T04:25:11.556Z,72.05
2023-04-17T04:26:15.962Z,71.93
2023-04-17T04:27:20.058Z,72.00
2023-04-17T04:28:22.988Z,72.09
2023-04-17T04:29:25.915Z,71.99
2023-04-17T04:30:30.125Z,71.87
2023-04-17T04:31:34.395Z,71.95
2023-04-17T04:32:37.737Z,71.07
2023-04-17T04:33:42.558Z,71.30
2023-04-17T04:34:44.829Z,71.00
2023-04-17T04:35:48.035Z,70.94
2023-04-17T04:38:03.166Z,70.72
2023-04-17T04:39:07.912Z,70.77
2023-04-17T04:40:12.577Z,70.86
2023-04-17T04:41:17.307Z,70.76
2023-04-17T04:42:19.543Z,70.40
2023-04-17T04:43:32.739Z,70.46
2023-04-17T04:44:36.162Z,70.16
2023-04-17T04:45:39.162Z,70.19
2023-04-17T04:46:41.572Z,69.93
2023-04-17T04:47:43.896Z,69.55
2023-04-17T04:48:46.129Z,68.78
2023-04-17T04:49:48.509Z,68.95
2023-04-17T04:50:52.817Z,68.97
2023-04-17T04:51:55.096Z,68.91
2023-04-17T04:52:59.620Z,68.70
2023-04-17T04:54:10.440Z,68.51
2023-04-17T04:55:14.677Z,68.68
2023-04-17T04:56:18.853Z,68.69
2023-04-17T04:57:22.956Z,68.63
2023-04-17T04:58:27.495Z,68.70
2023-04-17T04:59:30.875Z,68.69
2023-04-17T05:00:34.977Z,68.78
2023-04-17T05:01:37.531Z,68.37
2023-04-17T05:02:40.988Z,68.31
2023-04-17T05:03:44.543Z,68.08
2023-04-17T05:04:48.644Z,68.60
2023-04-17T05:05:51.285Z,68.72
2023-04-17T05:06:54.675Z,68.63
2023-04-17T05:08:00.024Z,68.61
2023-04-17T05:09:04.022Z,68.27
2023-04-17T05:10:07.659Z,68.10
2023-04-17T05:11:12.165Z,68.58
2023-04-17T05:12:15.085Z,68.40
2023-04-17T05:13:18.014Z,67.56
2023-04-17T05:14:21.076Z,67.27
2023-04-17T05:15:24.468Z,67.53
2023-04-17T05:16:27.007Z,67.84
2023-04-17T05:17:30.107Z,67.73
2023-04-17T05:18:32.421Z,67.94
2023-04-17T05:19:35.352Z,66.98
2023-04-17T05:20:40.254Z,67.00
2023-04-17T05:21:44.296Z,67.18
2023-04-17T05:22:47.416Z,67.41
2023-04-17T05:23:50.376Z,67.40
2023-04-17T05:24:52.710Z,66.39
2023-04-17T05:25:54.984Z,66.39
2023-04-17T05:26:59.153Z,65.69
2023-04-17T05:28:01.499Z,65.41
2023-04-17T05:29:05.785Z,65.85
2023-04-17T05:30:09.444Z,65.79
2023-04-17T05:31:11.924Z,65.81
2023-04-17T05:32:16.379Z,65.22
2023-04-17T05:33:26.061Z,65.10
2023-04-17T05:34:30.047Z,66.06
2023-04-17T05:35:32.993Z,65.96
2023-04-17T05:36:36.420Z,65.90
2023-04-17T05:37:39.770Z,66.62
2023-04-17T05:38:43.059Z,66.93
2023-04-17T05:39:46.165Z,66.74
2023-04-17T05:40:48.503Z,66.59
2023-04-17T05:41:51.863Z,66.53
2023-04-17T05:42:54.211Z,66.58
2023-04-17T05:43:56.533Z,66.42
2023-04-17T05:44:58.713Z,65.79
2023-04-17T05:46:02.224Z,65.81
2023-04-17T05:47:04.447Z,65.61
2023-04-17T05:48:06.916Z,66.02
2023-04-17T05:49:09.867Z,66.50
2023-04-17T05:50:12.874Z,66.21
2023-04-17T05:51:14.923Z,65.49
2023-04-17T05:52:18.124Z,65.88
2023-04-17T05:53:20.521Z,65.80
2023-04-17T05:54:27.667Z,66.18
2023-04-17T05:55:29.915Z,66.54
2023-04-17T05:56:34.016Z,66.54
2023-04-17T05:57:36.925Z,66.40
2023-04-17T05:58:39.485Z,66.59
2023-04-17T05:59:41.798Z,66.57
2023-04-17T06:00:44.906Z,66.38
2023-04-17T06:01:48.944Z,66.17
2023-04-17T06:02:53.219Z,66.11
2023-04-17T06:03:57.784Z,66.18
2023-04-17T06:05:02.015Z,66.21
2023-04-17T06:06:05.690Z,66.00
2023-04-17T06:07:08.093Z,65.86
2023-04-17T06:08:12.433Z,65.02
2023-04-17T06:09:14.814Z,65.66
2023-04-17T06:10:17.323Z,65.89
2023-04-17T06:11:21.774Z,65.97
2023-04-17T06:12:24.534Z,65.86
2023-04-17T06:13:27.486Z,66.06
2023-04-17T06:14:31.134Z,65.94
2023-04-17T06:15:33.433Z,65.98
2023-04-17T06:16:35.638Z,66.34
2023-04-17T06:17:41.196Z,66.64
2023-04-17T06:18:43.677Z,65.86
2023-04-17T06:19:46.266Z,65.36
2023-04-17T06:20:48.640Z,65.45
2023-04-17T06:21:51.314Z,65.55
2023-04-17T06:22:54.659Z,65.67
2023-04-17T06:23:58.139Z,64.87
2023-04-17T06:25:00.522Z,64.78
2023-04-17T06:26:02.947Z,65.07
2023-04-17T06:27:05.549Z,64.67
2023-04-17T06:28:07.683Z,64.51
2023-04-17T06:29:10.108Z,64.77
2023-04-17T06:30:13.069Z,64.57
2023-04-17T06:31:18.116Z,64.23
2023-04-17T06:32:20.348Z,65.22
2023-04-17T06:33:24.506Z,65.29
2023-04-17T06:34:27.800Z,65.63
2023-04-17T06:35:30.150Z,65.57
2023-04-17T06:36:35.217Z,65.42
2023-04-17T06:37:38.751Z,64.97
2023-04-17T06:38:40.891Z,65.77
2023-04-17T06:39:43.510Z,65.02
2023-04-17T06:40:46.053Z,65.73
2023-04-17T06:41:48.244Z,65.88
2023-04-17T06:42:52.673Z,65.38
2023-04-17T06:43:57.806Z,65.31
2023-04-17T06:45:02.372Z,66.00
2023-04-17T06:46:04.906Z,66.42
2023-04-17T06:47:08.776Z,65.21
2023-04-17T06:48:13.392Z,64.02
2023-04-17T06:49:16.738Z,64.28
2023-04-17T06:50:20.194Z,62.64
2023-04-17T06:51:22.925Z,62.29
2023-04-17T06:52:28.536Z,62.07
2023-04-17T06:53:30.993Z,61.62
2023-04-17T06:54:33.466Z,61.83
2023-04-17T06:55:35.504Z,61.59
2023-04-17T06:56:37.770Z,61.85
2023-04-17T06:57:40.454Z,61.95
2023-04-17T06:58:42.809Z,62.22
2023-04-17T06:59:44.756Z,62.34
2023-04-17T07:00:47.226Z,62.00
2023-04-17T07:01:49.324Z,62.02
2023-04-17T07:02:51.564Z,62.08
2023-04-17T07:03:54.003Z,62.63
2023-04-17T07:04:56.083Z,62.32
2023-04-17T07:05:58.887Z,62.11
2023-04-17T07:07:01.231Z,62.24
2023-04-17T07:08:03.993Z,62.57
2023-04-17T07:09:06.330Z,62.45
2023-04-17T07:10:10.319Z,62.03
2023-04-17T07:11:12.527Z,62.21
2023-04-17T07:12:15.758Z,62.59
2023-04-17T07:13:18.583Z,62.62
2023-04-17T07:14:20.752Z,62.21
2023-04-17T07:15:24.072Z,62.74
2023-04-17T07:16:26.398Z,62.23
2023-04-17T07:17:28.782Z,61.83
2023-04-17T07:18:32.049Z,62.02
2023-04-17T07:19:34.681Z,61.86
2023-04-17T07:20:36.967Z,62.44
2023-04-17T07:21:39.141Z,62.72
2023-04-17T07:22:42.100Z,62.60
2023-04-17T07:23:46.208Z,62.14
2023-04-17T07:24:48.956Z,62.85
2023-04-17T07:25:51.913Z,63.00
2023-04-17T07:26:54.232Z,62.81
2023-04-17T07:27:56.289Z,62.31
2023-04-17T07:28:58.406Z,62.56
2023-04-17T07:30:01.014Z,62.92
2023-04-17T07:31:03.564Z,63.30
2023-04-17T07:32:06.908Z,62.95
2023-04-17T07:33:09.774Z,63.04
2023-04-17T07:34:12.608Z,63.17
2023-04-17T07:35:14.793Z,63.82
2023-04-17T07:36:16.933Z,63.92
2023-04-17T07:37:19.040Z,63.58
2023-04-17T07:38:21.090Z,63.42
2023-04-17T07:39:23.190Z,63.46
2023-04-17T07:40:25.500Z,63.39
2023-04-17T07:41:28.290Z,63.11
2023-04-17T07:42:30.528Z,63.09
2023-04-17T07:43:32.779Z,63.62
2023-04-17T07:44:35.084Z,63.18
2023-04-17T07:45:39.717Z,62.59
2023-04-17T07:46:42.665Z,61.81
2023-04-17T07:47:45.773Z,62.56
2023-04-17T07:48:48.476Z,62.67
2023-04-17T07:49:50.689Z,62.98
2023-04-17T07:50:52.954Z,63.80
2023-04-17T07:51:55.136Z,62.93
2023-04-17T07:52:58.076Z,62.78
2023-04-17T07:54:00.308Z,63.19
2023-04-17T07:55:02.523Z,62.73
2023-04-17T07:56:05.591Z,62.67
2023-04-17T07:57:07.926Z,63.12
2023-04-17T07:58:10.626Z,63.39
2023-04-17T07:59:13.750Z,62.49
2023-04-17T08:00:17.052Z,61.95
2023-04-17T08:01:21.502Z,62.54
2023-04-17T08:02:23.881Z,62.53
2023-04-17T08:03:27.239Z,63.07
2023-04-17T08:04:29.893Z,63.28
2023-04-17T08:05:32.771Z,63.27
2023-04-17T08:06:35.063Z,62.99
2023-04-17T08:07:37.297Z,63.13
2023-04-17T08:08:39.566Z,62.44
2023-04-17T08:09:43.976Z,62.21
2023-04-17T08:10:47.512Z,62.21
2023-04-17T08:11:57.690Z,62.73
2023-04-17T08:12:55.610Z,63.20
2023-04-17T08:13:57.728Z,62.39
2023-04-17T08:14:59.711Z,62.45
2023-04-17T08:16:02.138Z,62.32
2023-04-17T08:17:04.556Z,62.17
2023-04-17T08:18:08.322Z,62.08
2023-04-17T08:19:10.860Z,61.96
2023-04-17T08:20:14.272Z,62.36
2023-04-17T08:21:17.274Z,62.95
2023-04-17T08:22:19.451Z,63.08
2023-04-17T08:23:21.508Z,61.74
2023-04-17T08:24:24.561Z,60.96
2023-04-17T08:25:27.341Z,60.40
2023-04-17T08:26:29.724Z,60.86
2023-04-17T08:27:32.223Z,60.62
2023-04-17T08:28:34.728Z,60.21
2023-04-17T08:29:36.686Z,60.64
2023-04-17T08:30:38.824Z,60.64
2023-04-17T08:31:42.042Z,60.74
2023-04-17T08:32:46.779Z,60.11
2023-04-17T08:33:51.274Z,60.54
2023-04-17T08:34:53.648Z,59.37
2023-04-17T08:35:55.921Z,60.13
2023-04-17T08:36:58.116Z,60.50
2023-04-17T08:38:00.855Z,60.57
2023-04-17T08:39:03.094Z,60.27
2023-04-17T08:40:06.970Z,60.37
2023-04-17T08:41:12.593Z,60.59
2023-04-17T08:42:18.461Z,59.37
2023-04-17T08:43:20.799Z,59.15
2023-04-17T08:44:23.001Z,59.70
2023-04-17T08:45:25.065Z,59.04
2023-04-17T08:46:28.720Z,59.83
2023-04-17T08:47:32.473Z,60.26
2023-04-17T08:48:34.845Z,59.70
2023-04-17T08:49:36.970Z,58.93
2023-04-17T08:50:41.519Z,60.62
2023-04-17T08:51:43.895Z,59.51
2023-04-17T08:52:49.284Z,59.69
2023-04-17T08:53:54.459Z,59.17
2023-04-17T08:54:56.809Z,58.80
2023-04-17T08:56:05.238Z,59.16
2023-04-17T08:57:08.669Z,59.04
2023-04-17T08:58:11.419Z,58.30
2023-04-17T08:59:14.721Z,58.49
2023-04-17T09:00:26.225Z,58.79
2023-04-17T09:01:29.323Z,59.55
2023-04-17T09:02:31.454Z,59.87
2023-04-17T09:03:42.481Z,57.87
2023-04-17T09:04:45.604Z,58.65
2023-04-17T09:05:48.271Z,57.67
2023-04-17T09:06:51.026Z,58.14
2023-04-17T09:08:14.551Z,58.44
2023-04-17T09:09:17.327Z,59.21
2023-04-17T09:10:20.039Z,58.75
2023-04-17T09:11:23.120Z,59.10
2023-04-17T09:12:25.863Z,59.10
2023-04-17T09:13:29.125Z,59.33
2023-04-17T09:14:31.423Z,58.86
2023-04-17T09:15:35.616Z,58.75
2023-04-17T09:16:41.777Z,59.04
2023-04-17T09:17:44.116Z,59.18
2023-04-17T09:18:47.736Z,58.54
2023-04-17T09:20:05.566Z,58.23
2023-04-17T09:21:09.200Z,58.45
2023-04-17T09:23:31.456Z,58.52
2023-04-17T09:24:34.942Z,58.48
2023-04-17T09:25:37.243Z,58.38
2023-04-17T09:26:39.909Z,58.56
2023-04-17T09:27:42.423Z,59.25
2023-04-17T09:29:08.275Z,59.29
2023-04-17T09:30:11.689Z,59.08
2023-04-17T09:31:23.885Z,58.56
2023-04-17T09:32:30.060Z,57.98
2023-04-17T09:33:32.553Z,58.54
2023-04-17T09:34:39.783Z,58.42
2023-04-17T09:35:42.423Z,58.42
2023-04-17T09:36:45.199Z,59.41
2023-04-17T09:39:04.525Z,59.13
2023-04-17T09:40:07.604Z,59.47
2023-04-17T09:42:40.086Z,59.57
2023-04-17T09:43:42.886Z,58.10
2023-04-17T09:44:45.119Z,58.72
2023-04-17T09:45:47.914Z,58.60
2023-04-17T09:46:52.523Z,59.13
2023-04-17T09:47:55.329Z,57.98
2023-04-17T09:50:18.045Z,57.05
2023-04-17T09:51:21.328Z,57.18
2023-04-17T09:52:23.600Z,56.34
2023-04-17T09:53:25.965Z,56.75
2023-04-17T09:55:41.460Z,56.83
2023-04-17T09:56:44.143Z,56.89
2023-04-17T09:57:48.706Z,57.13
2023-04-17T09:58:53.428Z,56.88
2023-04-17T09:59:56.928Z,55.60
2023-04-17T10:00:59.439Z,55.00
2023-04-17T10:02:03.678Z,54.96
2023-04-17T10:03:06.818Z,55.14
2023-04-17T10:04:10.980Z,56.33
2023-04-17T10:05:13.583Z,54.86
2023-04-17T10:06:16.236Z,54.55
2023-04-17T10:07:18.480Z,53.95
2023-04-17T10:08:22.156Z,54.53
2023-04-17T10:09:24.459Z,54.66
2023-04-17T10:10:29.941Z,55.38
2023-04-17T10:11:40.545Z,54.55
2023-04-17T10:12:42.766Z,55.25
2023-04-17T10:13:48.486Z,55.21
2023-04-17T10:14:52.249Z,55.34
2023-04-17T10:15:55.278Z,56.16
2023-04-17T10:16:58.173Z,57.74
2023-04-17T10:18:22.453Z,57.01
2023-04-17T10:19:33.423Z,56.74
2023-04-17T10:20:36.728Z,57.50
2023-04-17T10:21:39.417Z,57.10
2023-04-17T10:22:41.888Z,57.99
2023-04-17T10:23:44.425Z,57.33
2023-04-17T10:24:49.557Z,57.79
2023-04-17T10:26:12.098Z,56.97
2023-04-17T10:27:29.750Z,56.61
2023-04-17T10:28:49.107Z,56.04
2023-04-17T10:29:56.214Z,55.42
2023-04-17T10:30:58.856Z,56.24
2023-04-17T10:32:10.879Z,55.68
2023-04-17T10:33:17.357Z,55.83
2023-04-17T10:34:36.396Z,55.36
2023-04-17T10:35:38.744Z,55.57
2023-04-17T10:36:45.815Z,55.59
2023-04-17T10:37:52.000Z,55.66
2023-04-17T10:38:57.757Z,55.16
2023-04-17T10:40:00.974Z,55.23
2023-04-17T10:41:06.150Z,54.40
2023-04-17T10:42:08.963Z,54.06
2023-04-17T10:43:18.387Z,54.44
2023-04-17T10:44:20.726Z,53.57
2023-04-17T10:45:22.961Z,54.47
2023-04-17T10:46:25.580Z,54.50
2023-04-17T10:47:32.268Z,54.05
2023-04-17T10:48:37.695Z,54.64
2023-04-17T10:49:52.341Z,53.82
2023-04-17T10:52:04.909Z,53.46
2023-04-17T10:53:07.589Z,53.27
2023-04-17T10:54:09.802Z,52.50
2023-04-17T10:55:23.337Z,52.79
2023-04-17T10:56:42.878Z,51.96
2023-04-17T10:58:14.586Z,51.98
2023-04-17T10:59:18.153Z,52.02
2023-04-17T11:00:29.938Z,50.66
2023-04-17T11:01:43.563Z,50.16
2023-04-17T11:02:45.962Z,51.53
2023-04-17T11:03:48.401Z,50.73
2023-04-17T11:04:54.277Z,52.50
2023-04-17T11:05:58.433Z,51.34
2023-04-17T11:07:01.441Z,52.51
2023-04-17T11:08:04.171Z,51.94
2023-04-17T11:09:10.029Z,51.24
2023-04-17T11:10:13.366Z,50.95
2023-04-17T11:11:18.603Z,51.80
2023-04-17T11:12:20.986Z,51.78
2023-04-17T11:13:23.153Z,51.24
2023-04-17T11:14:25.959Z,51.94
2023-04-17T11:15:29.511Z,51.58
2023-04-17T11:16:32.016Z,50.41
2023-04-17T11:17:34.286Z,49.40
2023-04-17T11:18:38.060Z,50.48
2023-04-17T11:19:40.478Z,49.10
2023-04-17T11:20:42.780Z,47.01
2023-04-17T11:21:47.508Z,47.74
2023-04-17T11:22:50.650Z,46.80
2023-04-17T11:23:53.263Z,46.10
2023-04-17T11:24:55.610Z,48.44
2023-04-17T11:25:57.701Z,47.75
2023-04-17T11:27:00.867Z,47.86
2023-04-17T11:28:05.492Z,48.62
2023-04-17T11:30:28.552Z,48.33
2023-04-17T11:31:30.946Z,47.17
2023-04-17T11:32:36.086Z,46.58
2023-04-17T11:33:38.591Z,45.79
2023-04-17T11:34:41.176Z,45.54
2023-04-17T11:35:43.833Z,45.21
2023-04-17T11:38:22.610Z,44.28
2023-04-17T11:39:28.039Z,44.75
2023-04-17T11:40:30.572Z,44.41
2023-04-17T11:41:39.802Z,44.35
2023-04-17T11:42:45.336Z,43.81
2023-04-17T11:43:51.093Z,44.47
2023-04-17T11:44:56.874Z,45.44
2023-04-17T11:46:00.918Z,45.37
2023-04-17T11:47:03.351Z,44.78
2023-04-17T11:48:07.349Z,44.37
2023-04-17T11:49:09.856Z,44.75
2023-04-17T11:50:17.018Z,44.65
2023-04-17T11:51:19.750Z,44.39
2023-04-17T11:52:22.031Z,45.58
2023-04-17T11:53:24.834Z,44.93
2023-04-17T11:54:29.639Z,44.90
2023-04-17T11:55:32.439Z,45.20
2023-04-17T11:56:34.673Z,45.26
2023-04-17T11:57:42.980Z,44.80
2023-04-17T11:58:50.045Z,46.05
2023-04-17T11:59:52.197Z,45.66
2023-04-17T12:01:05.571Z,44.42
2023-04-17T12:02:09.394Z,44.07
2023-04-17T12:03:32.842Z,44.41
2023-04-17T12:04:37.273Z,44.34
2023-04-17T12:05:40.214Z,43.09
2023-04-17T12:06:42.572Z,42.64
2023-04-17T12:07:45.237Z,41.92
2023-04-17T12:08:52.383Z,42.74
2023-04-17T12:09:55.838Z,42.66
2023-04-17T12:10:58.428Z,41.68
2023-04-17T12:12:02.961Z,42.46
2023-04-17T12:13:05.083Z,43.93
2023-04-17T12:14:07.149Z,44.17
2023-04-17T12:15:10.273Z,44.62
2023-04-17T12:16:13.172Z,44.22
2023-04-17T12:17:15.281Z,44.96
2023-04-17T12:18:17.339Z,43.72
2023-04-17T12:19:19.230Z,43.35
2023-04-17T12:20:21.369Z,43.66
2023-04-17T12:21:23.564Z,43.94
2023-04-17T12:22:25.543Z,44.44
2023-04-17T12:23:27.514Z,43.82
2023-04-17T12:24:29.551Z,43.73
2023-04-17T12:25:32.874Z,44.19
2023-04-17T12:26:35.176Z,44.29
2023-04-17T12:27:37.760Z,44.34
2023-04-17T12:28:40.070Z,44.98
2023-04-17T12:29:44.321Z,45.16
2023-04-17T12:30:46.481Z,44.10
2023-04-17T12:31:49.357Z,43.44
2023-04-17T12:32:52.432Z,43.58
2023-04-17T12:33:55.150Z,43.74
2023-04-17T12:34:57.697Z,43.48
2023-04-17T12:36:02.580Z,43.59
2023-04-17T12:37:05.175Z,43.31
2023-04-17T12:38:07.961Z,43.80
2023-04-17T12:39:10.137Z,43.45
2023-04-17T12:40:12.967Z,44.27
2023-04-17T12:41:15.556Z,43.80
2023-04-17T12:42:18.223Z,43.41
2023-04-17T12:43:20.444Z,43.03
2023-04-17T12:44:23.715Z,42.78
2023-04-17T12:45:25.968Z,43.17
2023-04-17T12:46:29.535Z,43.02
2023-04-17T12:47:31.761Z,43.17
2023-04-17T12:48:33.939Z,43.03
2023-04-17T12:49:36.475Z,43.29
2023-04-17T12:50:39.031Z,43.40
2023-04-17T12:51:41.030Z,43.07
2023-04-17T12:52:43.522Z,43.47
2023-04-17T12:53:45.584Z,43.76
2023-04-17T12:54:47.817Z,44.39
2023-04-17T12:55:51.354Z,42.91
2023-04-17T12:56:53.688Z,42.99
2023-04-17T12:57:55.730Z,44.01
2023-04-17T12:58:59.407Z,45.17
2023-04-17T13:00:04.676Z,45.31
2023-04-17T13:01:06.993Z,45.16
2023-04-17T13:02:09.737Z,44.73
2023-04-17T13:03:12.384Z,43.53
2023-04-17T13:04:15.262Z,43.27
2023-04-17T13:05:18.916Z,43.89
2023-04-17T13:06:21.012Z,43.34
2023-04-17T13:07:23.619Z,44.21
2023-04-17T13:08:27.765Z,43.86
2023-04-17T13:09:37.193Z,43.72
2023-04-17T13:10:40.690Z,43.40
2023-04-17T13:11:45.161Z,42.29
2023-04-17T13:12:52.919Z,43.02
2023-04-17T13:13:59.592Z,42.48
2023-04-17T13:15:04.193Z,42.40
2023-04-17T13:16:10.460Z,43.24
2023-04-17T13:17:17.372Z,42.74
2023-04-17T13:18:23.533Z,42.82
2023-04-17T13:19:29.577Z,43.91
2023-04-17T13:20:37.372Z,42.99
2023-04-17T13:21:42.728Z,41.70
2023-04-17T13:22:50.941Z,41.94
2023-04-17T13:23:55.856Z,43.37
2023-04-17T13:25:05.633Z,43.73
2023-04-17T13:26:10.848Z,43.96
2023-04-17T13:27:15.405Z,43.74
2023-04-17T13:28:21.041Z,43.92
2023-04-17T13:29:27.127Z,43.94
2023-04-17T13:30:33.545Z,42.58
2023-04-17T13:31:39.875Z,42.71
2023-04-17T13:32:47.173Z,42.91
2023-04-17T13:33:53.199Z,43.28
2023-04-17T13:34:59.899Z,44.21
2023-04-17T13:36:04.989Z,43.47
2023-04-17T13:37:21.726Z,43.85
2023-04-17T13:38:26.245Z,44.26
2023-04-17T13:39:31.285Z,44.17
2023-04-17T13:40:51.814Z,44.00
2023-04-17T13:41:55.079Z,43.93
2023-04-17T13:43:02.640Z,43.61
2023-04-17T13:44:09.062Z,43.61
2023-04-17T13:45:16.087Z,44.31
2023-04-17T13:46:22.921Z,44.61
2023-04-17T13:47:28.247Z,44.97
2023-04-17T13:48:31.623Z,44.55
2023-04-17T13:49:36.482Z,45.13
2023-04-17T13:50:41.504Z,44.65
2023-04-17T13:51:46.879Z,44.10
2023-04-17T13:52:49.826Z,44.78
2023-04-17T13:53:55.394Z,45.78
2023-04-17T13:55:03.810Z,45.88
2023-04-17T13:56:12.776Z,45.21
2023-04-17T13:57:18.580Z,45.67
2023-04-17T13:59:47.618Z,45.84
2023-04-17T14:00:55.243Z,46.32
2023-04-17T14:01:58.574Z,45.37